Bei Facebook empfehlenBei Twitter postenGoogle plusPinterest

Das Wetter im Erzgebirge am 02.10.2015

Wetter und Klima am 02.10.2015 Holzhau im Erzgebirge (630m ü.NN)
Letzte gemessene Temperatur und Uhrzeit der Messung23:45:00 Uhr9.90 °C
Temperatur (Maximum / Höchstwert) und Uhrzeit der Messung15:00:00 Uhr16.90 °C
Temperatur (Minimum / Tiefstwert) und Uhrzeit der Messung05:15:00-1.10 °C
Errechneter Absolutwert der Temperaturschwankungen zwischen Tmin und Tmax des Tages18.00 K
Errechnete Tagesmitteltemperatur7.96458 °C
Gesamt - Niederschlag des Tages (in flüssiger Form)0.00 Liter / m²
Luftdruck (Maximum / Höchstwert) und Zeitpunkt der Messung01:00:00 Uhr1025.90 hPa
Luftdruck (Minimum / Tiefstwert) und Zeitpunkt der Messung23:45:00 Uhr1017.20 hPa
Errechneter Absolutwert der Luftdruckschwankungen des Tages8.70 hPa
Höchste gemessene Windgeschwindigkeit und Uhrzeit der Messung15:15:00 Uhr17.64 km/h
Errechnete Windhäufigkeit in Relation zu den Messwerten des Tages30.20833 %
Niedrigste Windkühle (Windchill) und Zeitpunkt der Messung05:15:00 Uhr-1.10 °C
Taupunkt (Maximum / Höchstwert) und Uhrzeit der Messung15:00:00 Uhr7.80 °C
Taupunkt (Minimum / Tiefstwert) und Uhrzeit der Messung01:30:00-3.20 °C
Anzahl der automatisch eingelesenen Messwerte 96

Detaillierte Wetter- und Klima- Messwerte für den 02.10.2015 in Holzhau im Erzgebirge (630m ü.NN)
ZeitTemperaturLuftdruckRel. LuftfeuchteWindWindrichtungWindchillTaupunktNiederschlag l/m²
23:45:009.90 °C1017.20 hPa73.00 %9.00 km/hO8.70 °C5.30 °C 
23:30:0010.10 °C1017.40 hPa72.00 %3.60 km/hOSO10.10 °C5.30 °C 
23:15:0010.30 °C1017.40 hPa72.00 %5.50 °C 
23:00:0010.40 °C1017.40 hPa71.00 %5.40 °C 
22:45:0010.50 °C1017.50 hPa71.00 %7.92 km/hOSO9.60 °C5.50 °C 
22:30:0010.80 °C1017.80 hPa70.00 %6.12 km/hONO10.40 °C5.60 °C 
22:15:0010.90 °C1017.80 hPa70.00 %3.96 km/hOSO10.90 °C5.70 °C 
22:00:0010.90 °C1017.80 hPa71.00 %5.90 °C 
21:45:0010.90 °C1018.00 hPa71.00 %5.90 °C 
21:30:0010.80 °C1018.20 hPa72.00 %2.52 km/hOSO10.80 °C6.00 °C 
21:15:0010.70 °C1018.40 hPa75.00 %3.24 km/hOSO10.70 °C6.50 °C 
21:00:009.90 °C1018.50 hPa78.00 %6.20 °C 
20:45:008.00 °C1018.50 hPa80.00 %6.48 km/hOSO7.00 °C4.80 °C 
20:30:006.10 °C1018.60 hPa78.00 %2.60 °C 
20:15:006.40 °C1018.70 hPa77.00 %2.70 °C 
20:00:007.10 °C1018.80 hPa76.00 %3.20 °C 
19:45:006.90 °C1018.70 hPa75.00 %2.80 °C 
19:30:007.40 °C1019.00 hPa72.00 %2.70 °C 
19:15:008.20 °C1019.00 hPa70.00 %3.10 °C 
19:00:009.10 °C1018.90 hPa68.00 %3.50 °C 
18:45:0010.50 °C1019.40 hPa65.00 %4.20 °C 
18:30:0012.20 °C1019.50 hPa61.00 %4.90 °C 
18:15:0013.80 °C1019.60 hPa58.00 %5.70 °C 
18:00:0014.60 °C1019.80 hPa57.00 %6.20 °C 
17:45:0014.90 °C1019.90 hPa56.00 %6.20 °C 
17:30:0015.30 °C1020.20 hPa55.00 %6.30 °C 
17:15:0015.50 °C1020.20 hPa54.00 %4.68 km/hSSO15.50 °C6.20 °C 
17:00:0015.90 °C1020.50 hPa53.00 %6.30 °C 
16:45:0016.30 °C1020.70 hPa53.00 %3.96 km/hW16.30 °C6.70 °C 
16:30:0016.40 °C1020.90 hPa53.00 %6.80 °C 
16:15:0016.40 °C1021.00 hPa54.00 %7.10 °C 
16:00:0016.50 °C1021.10 hPa54.00 %7.20 °C 
15:45:0016.20 °C1021.20 hPa54.00 %4.68 km/hSO16.20 °C6.90 °C 
15:30:0016.20 °C1021.30 hPa54.00 %6.90 °C 
15:15:0016.60 °C1021.50 hPa53.00 %17.64 km/hSSO15.90 °C7.00 °C 
15:00:0016.90 °C1021.50 hPa55.00 %7.80 °C 
14:45:0016.10 °C1021.50 hPa55.00 %7.10 °C 
14:30:0015.80 °C1021.60 hPa55.00 %9.72 km/hONO15.60 °C6.80 °C 
14:15:0015.80 °C1021.90 hPa55.00 %4.68 km/hONO15.80 °C6.80 °C 
14:00:0015.30 °C1022.00 hPa56.00 %4.68 km/hOSO15.30 °C6.60 °C 
13:45:0015.00 °C1022.30 hPa57.00 %6.60 °C 
13:30:0015.30 °C1022.50 hPa58.00 %10.80 km/hSO14.90 °C7.10 °C 
13:15:0015.10 °C1022.60 hPa59.00 %11.16 km/hOSO14.60 °C7.20 °C 
13:00:0014.40 °C1022.40 hPa61.00 %7.00 °C 
12:45:0013.90 °C1022.50 hPa60.00 %5.04 km/hS14.20 °C6.30 °C 
12:30:0014.30 °C1022.80 hPa62.00 %15.48 km/hS13.20 °C7.10 °C 
12:15:0013.80 °C1022.80 hPa63.00 %1.44 km/hO13.80 °C6.90 °C 
12:00:0013.50 °C1022.90 hPa62.00 %6.40 °C 
11:45:0013.10 °C1023.00 hPa64.00 %6.50 °C 
11:30:0012.90 °C1023.10 hPa64.00 %14.04 km/hSO11.60 °C6.30 °C 
11:15:0012.60 °C1023.10 hPa65.00 %6.12 km/hO12.40 °C6.20 °C 
11:00:0012.40 °C1023.30 hPa67.00 %10.08 km/hOSO11.50 °C6.50 °C 
10:45:0012.20 °C1023.20 hPa70.00 %7.20 km/hOSO11.70 °C6.90 °C 
10:30:0011.90 °C1023.30 hPa73.00 %6.84 km/hNNO11.50 °C7.20 °C 
10:15:0011.60 °C1023.20 hPa77.00 %9.00 km/hSO10.70 °C7.70 °C 
10:00:0011.00 °C1023.10 hPa80.00 %7.70 °C 
09:45:0010.40 °C1023.30 hPa84.00 %5.40 km/hOSO10.10 °C7.80 °C 
09:30:009.60 °C1023.30 hPa87.00 %7.50 °C 
09:15:008.40 °C1023.30 hPa89.00 %6.70 °C 
09:00:007.20 °C1023.30 hPa90.00 %5.70 °C 
08:45:005.90 °C1023.20 hPa91.00 %4.50 °C 
08:30:004.90 °C1023.30 hPa90.00 %3.40 °C 
08:15:004.70 °C1023.20 hPa90.00 %3.20 °C 
08:00:004.60 °C1023.10 hPa91.00 %3.30 °C 
07:45:004.30 °C1022.90 hPa91.00 %3.00 °C 
07:30:003.90 °C1023.10 hPa91.00 %3.96 km/hSO3.90 °C2.60 °C 
07:15:003.60 °C1023.10 hPa91.00 %1.44 km/hSO3.60 °C2.30 °C 
07:00:002.60 °C1023.20 hPa91.00 %1.30 °C 
06:45:001.80 °C1023.30 hPa91.00 %0.50 °C 
06:30:001.50 °C1023.20 hPa91.00 %0.20 °C 
06:15:000.60 °C1023.30 hPa91.00 %-0.70 °C 
06:00:00-0.20 °C1023.40 hPa90.00 %-1.80 °C 
05:45:00-0.40 °C1023.20 hPa90.00 %-2.00 °C 
05:30:00-0.50 °C1023.30 hPa90.00 %-2.10 °C 
05:15:00-1.10 °C1023.40 hPa90.00 %-2.70 °C 
05:00:00-1.10 °C1023.50 hPa90.00 %-2.70 °C 
04:45:00-0.50 °C1023.70 hPa90.00 %-2.10 °C 
04:30:00-0.70 °C1024.00 hPa90.00 %-2.30 °C 
04:15:00-0.90 °C1024.10 hPa90.00 %-2.50 °C 
04:00:00-0.90 °C1024.10 hPa89.00 %-2.70 °C 
03:45:00-1.10 °C1024.40 hPa89.00 %-2.90 °C 
03:30:00-1.10 °C1024.30 hPa89.00 %-2.90 °C 
03:15:00-0.60 °C1024.40 hPa88.00 %-2.50 °C 
03:00:00-0.20 °C1024.60 hPa88.00 %-2.10 °C 
02:45:00-0.10 °C1024.60 hPa88.00 %-2.00 °C 
02:30:000.10 °C1024.70 hPa89.00 %-1.50 °C 
02:15:00-0.70 °C1024.90 hPa88.00 %-2.60 °C 
02:00:00-0.90 °C1025.20 hPa88.00 %-2.80 °C 
01:45:00-1.10 °C1025.60 hPa88.00 %-3.00 °C 
01:30:00-1.10 °C1025.70 hPa87.00 %-3.20 °C 
01:15:00-1.00 °C1025.60 hPa87.00 %-3.10 °C 
01:00:00-0.90 °C1025.90 hPa87.00 %-3.00 °C 
00:45:00-0.40 °C1025.80 hPa86.00 %-2.70 °C 
00:30:000.10 °C1025.80 hPa86.00 %-2.00 °C 
00:15:000.20 °C1025.80 hPa87.00 %-1.70 °C 
00:00:000.20 °C1025.90 hPa86.00 %-1.90 °C 

Permanenter Link zu dieser Seite: Wetter im Erzgebirge am 02.10.2015
Performance-Info: Die Erstellung der Seite / Statistik(en) / Tabelle(n) erforderte 5 Datenbankserver-Abfrage(n) und dauerte 122 Millisekunden. (Dieser Messwert ist von der Gesamt-Auslastung des Servers abhängig.)
Erzgebirge - Wetter | Erzgebirge - Wetter (Mobilgeräte) | Komplette Klimadatenbank